sensor_id;sensor_type;location;lat;lon;timestamp;pressure;altitude;pressure_sealevel;temperature;humidity
71165;BME280;58859;55.132;-1.586;2023-04-02T00:02:34;101879.88;;;10.75;100.00
71165;BME280;58859;55.132;-1.586;2023-04-02T00:08:00;101874.56;;;10.54;100.00
71165;BME280;58859;55.132;-1.586;2023-04-02T00:10:38;101891.09;;;10.64;100.00
71165;BME280;58859;55.132;-1.586;2023-04-02T00:15:42;101902.25;;;10.66;100.00
71165;BME280;58859;55.132;-1.586;2023-04-02T00:18:13;101906.00;;;10.51;100.00
71165;BME280;58859;55.132;-1.586;2023-04-02T00:20:41;101905.53;;;10.46;100.00
71165;BME280;58859;55.132;-1.586;2023-04-02T00:23:11;101897.13;;;10.54;100.00
71165;BME280;58859;55.132;-1.586;2023-04-02T00:25:38;101907.22;;;10.58;100.00
71165;BME280;58859;55.132;-1.586;2023-04-02T00:28:21;101911.56;;;10.58;100.00
71165;BME280;58859;55.132;-1.586;2023-04-02T00:30:52;101909.44;;;10.52;100.00
71165;BME280;58859;55.132;-1.586;2023-04-02T00:33:21;101917.13;;;10.53;100.00
71165;BME280;58859;55.132;-1.586;2023-04-02T00:35:49;101905.88;;;10.42;100.00
71165;BME280;58859;55.132;-1.586;2023-04-02T00:38:25;101928.59;;;10.51;100.00
71165;BME280;58859;55.132;-1.586;2023-04-02T00:40:54;101923.63;;;10.59;100.00
71165;BME280;58859;55.132;-1.586;2023-04-02T00:43:27;101926.72;;;10.53;100.00
71165;BME280;58859;55.132;-1.586;2023-04-02T00:45:57;101937.00;;;10.54;100.00
71165;BME280;58859;55.132;-1.586;2023-04-02T00:48:40;101939.44;;;10.33;100.00
71165;BME280;58859;55.132;-1.586;2023-04-02T00:53:40;101951.66;;;10.44;100.00
71165;BME280;58859;55.132;-1.586;2023-04-02T00:56:15;101957.22;;;10.62;100.00
71165;BME280;58859;55.132;-1.586;2023-04-02T00:58:43;101958.41;;;10.69;100.00
71165;BME280;58859;55.132;-1.586;2023-04-02T01:01:21;101965.25;;;10.59;100.00
71165;BME280;58859;55.132;-1.586;2023-04-02T01:03:53;101959.56;;;10.65;100.00
71165;BME280;58859;55.132;-1.586;2023-04-02T01:06:24;101962.09;;;10.66;100.00
71165;BME280;58859;55.132;-1.586;2023-04-02T01:11:51;101973.63;;;10.51;100.00
71165;BME280;58859;55.132;-1.586;2023-04-02T01:17:05;101986.31;;;10.67;100.00
71165;BME280;58859;55.132;-1.586;2023-04-02T01:25:06;102001.41;;;10.51;100.00
71165;BME280;58859;55.132;-1.586;2023-04-02T01:27:41;102004.41;;;10.57;100.00
71165;BME280;58859;55.132;-1.586;2023-04-02T01:30:08;101991.16;;;10.60;100.00
71165;BME280;58859;55.132;-1.586;2023-04-02T01:32:36;102002.28;;;10.62;100.00
71165;BME280;58859;55.132;-1.586;2023-04-02T01:35:03;102002.66;;;10.69;100.00
71165;BME280;58859;55.132;-1.586;2023-04-02T01:40:04;101996.22;;;10.62;100.00
71165;BME280;58859;55.132;-1.586;2023-04-02T01:45:17;102005.47;;;10.66;100.00
71165;BME280;58859;55.132;-1.586;2023-04-02T01:47:43;102015.03;;;10.65;100.00
71165;BME280;58859;55.132;-1.586;2023-04-02T01:50:19;102012.91;;;10.59;100.00
71165;BME280;58859;55.132;-1.586;2023-04-02T01:52:49;102017.28;;;10.59;100.00
71165;BME280;58859;55.132;-1.586;2023-04-02T01:55:19;102017.78;;;10.64;100.00
71165;BME280;58859;55.132;-1.586;2023-04-02T01:57:49;102020.50;;;10.73;100.00
71165;BME280;58859;55.132;-1.586;2023-04-02T02:00:16;102028.03;;;10.54;100.00
71165;BME280;58859;55.132;-1.586;2023-04-02T02:02:46;102035.03;;;10.65;100.00
71165;BME280;58859;55.132;-1.586;2023-04-02T02:05:15;102042.00;;;10.64;100.00
71165;BME280;58859;55.132;-1.586;2023-04-02T02:07:41;102045.00;;;10.82;100.00
71165;BME280;58859;55.132;-1.586;2023-04-02T02:10:13;102046.66;;;10.83;100.00
71165;BME280;58859;55.132;-1.586;2023-04-02T02:12:42;102048.97;;;10.53;100.00
71165;BME280;58859;55.132;-1.586;2023-04-02T02:15:14;102057.34;;;10.56;100.00
71165;BME280;58859;55.132;-1.586;2023-04-02T02:17:41;102058.72;;;10.38;100.00
71165;BME280;58859;55.132;-1.586;2023-04-02T02:20:08;102061.63;;;10.57;100.00
71165;BME280;58859;55.132;-1.586;2023-04-02T02:22:42;102066.09;;;10.44;100.00
71165;BME280;58859;55.132;-1.586;2023-04-02T02:25:20;102076.59;;;10.43;100.00
71165;BME280;58859;55.132;-1.586;2023-04-02T02:28:05;102079.59;;;10.60;100.00
71165;BME280;58859;55.132;-1.586;2023-04-02T02:30:36;102088.25;;;10.61;100.00
71165;BME280;58859;55.132;-1.586;2023-04-02T02:33:13;102082.88;;;10.51;100.00
71165;BME280;58859;55.132;-1.586;2023-04-02T02:35:43;102086.16;;;10.42;100.00
71165;BME280;58859;55.132;-1.586;2023-04-02T02:38:31;102081.88;;;10.76;100.00
71165;BME280;58859;55.132;-1.586;2023-04-02T02:41:32;102098.66;;;10.37;100.00
71165;BME280;58859;55.132;-1.586;2023-04-02T02:46:31;102091.53;;;10.28;100.00
71165;BME280;58859;55.132;-1.586;2023-04-02T02:48:59;102116.53;;;10.42;100.00
71165;BME280;58859;55.132;-1.586;2023-04-02T02:51:37;102116.25;;;10.33;100.00
71165;BME280;58859;55.132;-1.586;2023-04-02T02:54:04;102109.41;;;10.32;100.00
71165;BME280;58859;55.132;-1.586;2023-04-02T02:56:33;102115.06;;;10.26;100.00
71165;BME280;58859;55.132;-1.586;2023-04-02T02:59:02;102119.91;;;10.31;100.00
71165;BME280;58859;55.132;-1.586;2023-04-02T03:01:29;102107.13;;;10.28;100.00
71165;BME280;58859;55.132;-1.586;2023-04-02T03:03:56;102127.41;;;10.35;100.00
71165;BME280;58859;55.132;-1.586;2023-04-02T03:06:21;102129.94;;;10.24;100.00
71165;BME280;58859;55.132;-1.586;2023-04-02T03:08:52;102129.38;;;10.32;100.00
71165;BME280;58859;55.132;-1.586;2023-04-02T03:11:43;102141.78;;;10.28;100.00
71165;BME280;58859;55.132;-1.586;2023-04-02T03:14:32;102142.94;;;10.24;100.00
71165;BME280;58859;55.132;-1.586;2023-04-02T03:17:09;102151.88;;;10.20;100.00
71165;BME280;58859;55.132;-1.586;2023-04-02T03:19:48;102158.09;;;10.30;100.00
71165;BME280;58859;55.132;-1.586;2023-04-02T03:22:27;102167.28;;;10.23;100.00
71165;BME280;58859;55.132;-1.586;2023-04-02T03:25:04;102160.69;;;10.30;100.00
71165;BME280;58859;55.132;-1.586;2023-04-02T03:27:41;102177.19;;;10.42;100.00
71165;BME280;58859;55.132;-1.586;2023-04-02T03:33:04;102189.50;;;10.27;100.00
71165;BME280;58859;55.132;-1.586;2023-04-02T03:35:36;102194.06;;;10.36;100.00
71165;BME280;58859;55.132;-1.586;2023-04-02T03:38:24;102197.41;;;10.38;100.00
71165;BME280;58859;55.132;-1.586;2023-04-02T03:43:45;102207.94;;;10.24;100.00
71165;BME280;58859;55.132;-1.586;2023-04-02T03:48:56;102209.78;;;10.35;100.00
71165;BME280;58859;55.132;-1.586;2023-04-02T03:54:12;102208.75;;;10.25;100.00
71165;BME280;58859;55.132;-1.586;2023-04-02T03:56:38;102207.69;;;10.27;100.00
71165;BME280;58859;55.132;-1.586;2023-04-02T04:01:58;102215.75;;;10.24;100.00
71165;BME280;58859;55.132;-1.586;2023-04-02T04:04:27;102213.16;;;10.24;100.00
71165;BME280;58859;55.132;-1.586;2023-04-02T04:06:55;102214.78;;;10.25;100.00
71165;BME280;58859;55.132;-1.586;2023-04-02T04:09:22;102215.75;;;10.24;100.00
71165;BME280;58859;55.132;-1.586;2023-04-02T04:12:00;102223.66;;;10.23;100.00
71165;BME280;58859;55.132;-1.586;2023-04-02T04:14:33;102223.75;;;10.09;100.00
71165;BME280;58859;55.132;-1.586;2023-04-02T04:24:46;102231.53;;;10.09;100.00
71165;BME280;58859;55.132;-1.586;2023-04-02T04:27:19;102225.13;;;10.02;100.00
71165;BME280;58859;55.132;-1.586;2023-04-02T04:30:03;102239.13;;;9.99;100.00
71165;BME280;58859;55.132;-1.586;2023-04-02T04:32:38;102243.09;;;9.79;100.00
71165;BME280;58859;55.132;-1.586;2023-04-02T04:37:47;102240.81;;;9.75;100.00
71165;BME280;58859;55.132;-1.586;2023-04-02T04:40:20;102244.97;;;9.90;100.00
71165;BME280;58859;55.132;-1.586;2023-04-02T04:42:51;102244.16;;;9.90;100.00
71165;BME280;58859;55.132;-1.586;2023-04-02T04:45:33;102244.97;;;9.77;100.00
71165;BME280;58859;55.132;-1.586;2023-04-02T04:49:07;102250.59;;;9.84;100.00
71165;BME280;58859;55.132;-1.586;2023-04-02T04:51:25;102254.34;;;9.93;100.00
71165;BME280;58859;55.132;-1.586;2023-04-02T04:53:52;102253.91;;;9.86;100.00
71165;BME280;58859;55.132;-1.586;2023-04-02T04:56:27;102255.38;;;9.90;100.00
71165;BME280;58859;55.132;-1.586;2023-04-02T04:59:24;102258.06;;;9.63;100.00
71165;BME280;58859;55.132;-1.586;2023-04-02T05:01:56;102246.53;;;9.55;100.00
71165;BME280;58859;55.132;-1.586;2023-04-02T05:07:16;102265.56;;;9.80;100.00
71165;BME280;58859;55.132;-1.586;2023-04-02T05:17:37;102282.06;;;9.79;100.00
71165;BME280;58859;55.132;-1.586;2023-04-02T05:20:27;102279.38;;;9.81;100.00
71165;BME280;58859;55.132;-1.586;2023-04-02T05:22:57;102283.22;;;9.75;100.00
71165;BME280;58859;55.132;-1.586;2023-04-02T05:25:28;102294.94;;;9.68;100.00
71165;BME280;58859;55.132;-1.586;2023-04-02T05:33:23;102285.09;;;9.61;100.00
71165;BME280;58859;55.132;-1.586;2023-04-02T05:36:01;102295.69;;;9.70;100.00
71165;BME280;58859;55.132;-1.586;2023-04-02T05:38:31;102308.47;;;9.73;100.00
71165;BME280;58859;55.132;-1.586;2023-04-02T05:41:26;102311.69;;;9.77;100.00
71165;BME280;58859;55.132;-1.586;2023-04-02T05:44:20;102282.78;;;9.44;100.00
71165;BME280;58859;55.132;-1.586;2023-04-02T05:49:50;102309.72;;;9.80;100.00
71165;BME280;58859;55.132;-1.586;2023-04-02T05:52:21;102326.06;;;9.95;100.00
71165;BME280;58859;55.132;-1.586;2023-04-02T05:55:21;102331.38;;;10.06;100.00
71165;BME280;58859;55.132;-1.586;2023-04-02T05:57:54;102328.28;;;10.26;100.00
71165;BME280;58859;55.132;-1.586;2023-04-02T06:00:38;102345.75;;;10.24;100.00
71165;BME280;58859;55.132;-1.586;2023-04-02T06:05:49;102346.13;;;10.06;100.00
71165;BME280;58859;55.132;-1.586;2023-04-02T06:08:43;102363.84;;;10.26;100.00
71165;BME280;58859;55.132;-1.586;2023-04-02T06:11:17;102350.00;;;10.25;100.00
71165;BME280;58859;55.132;-1.586;2023-04-02T06:13:44;102364.75;;;10.50;100.00
71165;BME280;58859;55.132;-1.586;2023-04-02T06:16:13;102347.63;;;10.35;100.00
71165;BME280;58859;55.132;-1.586;2023-04-02T06:18:41;102363.41;;;10.57;100.00
71165;BME280;58859;55.132;-1.586;2023-04-02T06:21:07;102375.69;;;10.43;100.00
71165;BME280;58859;55.132;-1.586;2023-04-02T06:26:14;102366.03;;;10.93;100.00
71165;BME280;58859;55.132;-1.586;2023-04-02T06:28:46;102370.75;;;11.83;100.00
71165;BME280;58859;55.132;-1.586;2023-04-02T06:31:26;102376.94;;;11.93;100.00
71165;BME280;58859;55.132;-1.586;2023-04-02T06:33:52;102372.84;;;12.57;100.00
71165;BME280;58859;55.132;-1.586;2023-04-02T06:36:21;102379.22;;;13.09;100.00
71165;BME280;58859;55.132;-1.586;2023-04-02T06:38:47;102382.78;;;13.19;100.00
71165;BME280;58859;55.132;-1.586;2023-04-02T06:41:19;102384.38;;;13.42;100.00
71165;BME280;58859;55.132;-1.586;2023-04-02T06:44:13;102394.69;;;14.37;100.00
71165;BME280;58859;55.132;-1.586;2023-04-02T06:46:42;102389.19;;;14.41;100.00
71165;BME280;58859;55.132;-1.586;2023-04-02T06:49:24;102405.13;;;14.58;100.00
71165;BME280;58859;55.132;-1.586;2023-04-02T06:51:55;102402.59;;;14.47;100.00
71165;BME280;58859;55.132;-1.586;2023-04-02T06:54:22;102408.13;;;14.93;100.00
71165;BME280;58859;55.132;-1.586;2023-04-02T06:56:50;102414.72;;;14.78;100.00
71165;BME280;58859;55.132;-1.586;2023-04-02T06:59:17;102416.53;;;15.94;100.00
71165;BME280;58859;55.132;-1.586;2023-04-02T07:01:50;102417.75;;;16.09;100.00
71165;BME280;58859;55.132;-1.586;2023-04-02T07:04:17;102422.63;;;15.95;100.00
71165;BME280;58859;55.132;-1.586;2023-04-02T07:06:43;102425.94;;;15.68;100.00
71165;BME280;58859;55.132;-1.586;2023-04-02T07:09:09;102427.63;;;14.70;100.00
71165;BME280;58859;55.132;-1.586;2023-04-02T07:11:35;102420.25;;;16.11;100.00
71165;BME280;58859;55.132;-1.586;2023-04-02T07:14:01;102431.56;;;15.92;100.00
71165;BME280;58859;55.132;-1.586;2023-04-02T07:16:28;102433.28;;;15.06;100.00
71165;BME280;58859;55.132;-1.586;2023-04-02T07:18:54;102436.53;;;15.95;100.00
71165;BME280;58859;55.132;-1.586;2023-04-02T07:21:20;102439.72;;;15.89;100.00
71165;BME280;58859;55.132;-1.586;2023-04-02T07:23:46;102430.19;;;15.50;100.00
71165;BME280;58859;55.132;-1.586;2023-04-02T07:26:14;102435.00;;;16.12;100.00
71165;BME280;58859;55.132;-1.586;2023-04-02T07:28:40;102439.91;;;15.10;100.00
71165;BME280;58859;55.132;-1.586;2023-04-02T07:31:22;102439.00;;;15.39;100.00
71165;BME280;58859;55.132;-1.586;2023-04-02T07:33:52;102443.00;;;16.30;100.00
71165;BME280;58859;55.132;-1.586;2023-04-02T07:36:23;102438.16;;;16.25;100.00
71165;BME280;58859;55.132;-1.586;2023-04-02T07:38:48;102450.22;;;15.51;100.00
71165;BME280;58859;55.132;-1.586;2023-04-02T07:41:15;102441.50;;;16.18;100.00
71165;BME280;58859;55.132;-1.586;2023-04-02T07:43:41;102450.94;;;15.91;100.00
71165;BME280;58859;55.132;-1.586;2023-04-02T07:46:08;102457.00;;;15.14;100.00
71165;BME280;58859;55.132;-1.586;2023-04-02T07:48:33;102460.31;;;15.94;100.00
71165;BME280;58859;55.132;-1.586;2023-04-02T07:50:59;102456.69;;;16.24;100.00
71165;BME280;58859;55.132;-1.586;2023-04-02T07:53:33;102460.41;;;14.95;100.00
71165;BME280;58859;55.132;-1.586;2023-04-02T07:56:01;102463.50;;;16.73;100.00
71165;BME280;58859;55.132;-1.586;2023-04-02T07:58:28;102448.78;;;16.33;100.00
71165;BME280;58859;55.132;-1.586;2023-04-02T08:00:53;102462.53;;;17.01;100.00
71165;BME280;58859;55.132;-1.586;2023-04-02T08:03:19;102473.19;;;15.28;100.00
71165;BME280;58859;55.132;-1.586;2023-04-02T08:05:56;102484.47;;;15.59;100.00
71165;BME280;58859;55.132;-1.586;2023-04-02T08:08:22;102481.53;;;16.39;98.80
71165;BME280;58859;55.132;-1.586;2023-04-02T08:10:49;102481.56;;;16.10;100.00
71165;BME280;58859;55.132;-1.586;2023-04-02T08:13:16;102485.50;;;16.52;100.00
71165;BME280;58859;55.132;-1.586;2023-04-02T08:15:42;102492.31;;;16.92;98.26
71165;BME280;58859;55.132;-1.586;2023-04-02T08:18:08;102491.16;;;18.11;91.00
71165;BME280;58859;55.132;-1.586;2023-04-02T08:20:34;102491.56;;;17.36;93.01
71165;BME280;58859;55.132;-1.586;2023-04-02T08:23:00;102483.66;;;17.36;100.00
71165;BME280;58859;55.132;-1.586;2023-04-02T08:25:27;102493.88;;;18.71;94.08
71165;BME280;58859;55.132;-1.586;2023-04-02T08:27:53;102506.56;;;16.43;90.67
71165;BME280;58859;55.132;-1.586;2023-04-02T08:30:19;102508.00;;;16.84;95.79
71165;BME280;58859;55.132;-1.586;2023-04-02T08:32:44;102503.34;;;17.77;86.25
71165;BME280;58859;55.132;-1.586;2023-04-02T08:35:12;102508.56;;;18.04;80.13
71165;BME280;58859;55.132;-1.586;2023-04-02T08:37:39;102513.69;;;16.70;82.61
71165;BME280;58859;55.132;-1.586;2023-04-02T08:40:05;102515.53;;;17.60;77.65
71165;BME280;58859;55.132;-1.586;2023-04-02T08:45:49;102535.03;;;16.19;80.46
71165;BME280;58859;55.132;-1.586;2023-04-02T08:48:19;102519.69;;;18.16;75.09
71165;BME280;58859;55.132;-1.586;2023-04-02T08:50:45;102534.03;;;16.77;76.85
71165;BME280;58859;55.132;-1.586;2023-04-02T08:53:22;102534.47;;;16.63;78.03
71165;BME280;58859;55.132;-1.586;2023-04-02T09:03:54;102544.81;;;19.97;62.84
71165;BME280;58859;55.132;-1.586;2023-04-02T09:06:21;102544.75;;;19.57;60.72
71165;BME280;58859;55.132;-1.586;2023-04-02T09:08:48;102541.06;;;19.41;64.11
71165;BME280;58859;55.132;-1.586;2023-04-02T09:11:34;102549.31;;;20.53;70.05
71165;BME280;58859;55.132;-1.586;2023-04-02T09:14:05;102555.00;;;18.92;62.61
71165;BME280;58859;55.132;-1.586;2023-04-02T09:16:43;102547.22;;;19.24;60.84
71165;BME280;58859;55.132;-1.586;2023-04-02T09:19:35;102555.72;;;18.76;62.74
71165;BME280;58859;55.132;-1.586;2023-04-02T09:22:17;102556.59;;;18.59;61.41
71165;BME280;58859;55.132;-1.586;2023-04-02T09:24:53;102556.78;;;18.05;61.71
71165;BME280;58859;55.132;-1.586;2023-04-02T09:27:21;102558.41;;;17.88;63.62
71165;BME280;58859;55.132;-1.586;2023-04-02T09:29:52;102570.78;;;17.60;64.46
71165;BME280;58859;55.132;-1.586;2023-04-02T09:32:38;102570.66;;;17.52;68.39
71165;BME280;58859;55.132;-1.586;2023-04-02T09:35:20;102579.94;;;16.73;71.00
71165;BME280;58859;55.132;-1.586;2023-04-02T09:37:46;102584.28;;;17.11;68.21
71165;BME280;58859;55.132;-1.586;2023-04-02T09:40:21;102586.34;;;17.54;66.13
71165;BME280;58859;55.132;-1.586;2023-04-02T09:42:48;102585.16;;;15.77;81.53
71165;BME280;58859;55.132;-1.586;2023-04-02T09:45:22;102593.97;;;17.10;71.52
71165;BME280;58859;55.132;-1.586;2023-04-02T09:47:49;102592.44;;;19.63;61.76
71165;BME280;58859;55.132;-1.586;2023-04-02T09:50:28;102587.66;;;18.73;67.46
71165;BME280;58859;55.132;-1.586;2023-04-02T09:52:54;102597.75;;;17.90;63.25
71165;BME280;58859;55.132;-1.586;2023-04-02T09:57:50;102599.19;;;17.84;66.69
71165;BME280;58859;55.132;-1.586;2023-04-02T10:00:21;102607.78;;;18.04;64.07
71165;BME280;58859;55.132;-1.586;2023-04-02T10:03:00;102608.13;;;17.73;64.59
71165;BME280;58859;55.132;-1.586;2023-04-02T10:05:26;102618.19;;;20.76;60.91
71165;BME280;58859;55.132;-1.586;2023-04-02T10:07:53;102626.13;;;19.69;72.14
71165;BME280;58859;55.132;-1.586;2023-04-02T10:10:29;102627.84;;;18.67;63.08
71165;BME280;58859;55.132;-1.586;2023-04-02T10:13:06;102638.28;;;16.96;67.28
71165;BME280;58859;55.132;-1.586;2023-04-02T10:21:23;102651.19;;;16.80;68.27
71165;BME280;58859;55.132;-1.586;2023-04-02T10:23:49;102651.00;;;17.47;67.64
71165;BME280;58859;55.132;-1.586;2023-04-02T10:39:40;102668.13;;;17.70;59.86
71165;BME280;58859;55.132;-1.586;2023-04-02T10:42:29;102675.59;;;17.18;64.06
71165;BME280;58859;55.132;-1.586;2023-04-02T10:45:18;102671.78;;;16.84;67.78
71165;BME280;58859;55.132;-1.586;2023-04-02T10:48:16;102657.97;;;18.90;58.26
71165;BME280;58859;55.132;-1.586;2023-04-02T10:51:06;102667.56;;;18.56;61.29
71165;BME280;58859;55.132;-1.586;2023-04-02T10:53:45;102658.97;;;21.30;62.98
71165;BME280;58859;55.132;-1.586;2023-04-02T10:56:16;102664.94;;;22.09;72.09
71165;BME280;58859;55.132;-1.586;2023-04-02T10:58:52;102676.97;;;18.94;54.47
71165;BME280;58859;55.132;-1.586;2023-04-02T11:01:25;102672.06;;;20.26;53.38
71165;BME280;58859;55.132;-1.586;2023-04-02T11:03:59;102686.41;;;19.22;54.27
71165;BME280;58859;55.132;-1.586;2023-04-02T11:06:37;102681.84;;;19.32;57.02
71165;BME280;58859;55.132;-1.586;2023-04-02T11:09:14;102682.66;;;20.34;53.87
71165;BME280;58859;55.132;-1.586;2023-04-02T11:11:43;102698.13;;;17.77;57.45
71165;BME280;58859;55.132;-1.586;2023-04-02T11:14:16;102694.53;;;17.78;60.96
71165;BME280;58859;55.132;-1.586;2023-04-02T11:16:47;102696.69;;;17.46;56.13
71165;BME280;58859;55.132;-1.586;2023-04-02T11:26:45;102700.94;;;17.19;56.90
71165;BME280;58859;55.132;-1.586;2023-04-02T11:29:26;102709.44;;;18.77;53.45
71165;BME280;58859;55.132;-1.586;2023-04-02T11:42:47;102733.31;;;19.88;50.32
71165;BME280;58859;55.132;-1.586;2023-04-02T11:50:42;102725.66;;;20.11;65.57
71165;BME280;58859;55.132;-1.586;2023-04-02T11:55:37;102734.97;;;18.94;55.95
71165;BME280;58859;55.132;-1.586;2023-04-02T12:09:25;102746.75;;;20.44;52.11
71165;BME280;58859;55.132;-1.586;2023-04-02T12:11:53;102745.69;;;18.57;53.07
71165;BME280;58859;55.132;-1.586;2023-04-02T12:17:20;102742.16;;;19.71;56.25
71165;BME280;58859;55.132;-1.586;2023-04-02T12:19:49;102760.94;;;17.62;57.44
71165;BME280;58859;55.132;-1.586;2023-04-02T12:22:22;102720.91;;;19.46;58.97
71165;BME280;58859;55.132;-1.586;2023-04-02T12:24:48;102763.56;;;17.53;55.69
71165;BME280;58859;55.132;-1.586;2023-04-02T12:27:20;102759.31;;;18.53;58.28
71165;BME280;58859;55.132;-1.586;2023-04-02T12:29:51;102762.44;;;18.38;57.70
71165;BME280;58859;55.132;-1.586;2023-04-02T12:32:24;102768.56;;;18.29;57.89
71165;BME280;58859;55.132;-1.586;2023-04-02T12:34:51;102762.66;;;18.72;56.63
71165;BME280;58859;55.132;-1.586;2023-04-02T12:37:28;102760.94;;;19.68;63.70
71165;BME280;58859;55.132;-1.586;2023-04-02T12:40:12;102771.94;;;18.22;60.60
71165;BME280;58859;55.132;-1.586;2023-04-02T12:42:41;102783.16;;;18.24;53.65
71165;BME280;58859;55.132;-1.586;2023-04-02T12:45:06;102781.56;;;18.13;61.52
71165;BME280;58859;55.132;-1.586;2023-04-02T12:47:45;102773.41;;;18.07;57.23
71165;BME280;58859;55.132;-1.586;2023-04-02T12:50:13;102783.81;;;17.23;55.58
71165;BME280;58859;55.132;-1.586;2023-04-02T12:52:43;102782.34;;;18.14;54.13
71165;BME280;58859;55.132;-1.586;2023-04-02T12:55:18;102796.63;;;18.48;54.34
71165;BME280;58859;55.132;-1.586;2023-04-02T12:57:45;102793.84;;;20.15;53.94
71165;BME280;58859;55.132;-1.586;2023-04-02T13:02:48;102793.16;;;20.05;51.89
71165;BME280;58859;55.132;-1.586;2023-04-02T13:05:32;102791.13;;;20.25;52.43
71165;BME280;58859;55.132;-1.586;2023-04-02T13:07:58;102793.94;;;17.18;54.67
71165;BME280;58859;55.132;-1.586;2023-04-02T13:10:25;102794.75;;;17.38;54.50
71165;BME280;58859;55.132;-1.586;2023-04-02T13:13:02;102794.97;;;17.83;54.45
71165;BME280;58859;55.132;-1.586;2023-04-02T13:15:29;102798.22;;;20.66;55.71
71165;BME280;58859;55.132;-1.586;2023-04-02T13:22:57;102791.84;;;16.74;55.47
71165;BME280;58859;55.132;-1.586;2023-04-02T13:25:28;102794.00;;;17.84;65.33
71165;BME280;58859;55.132;-1.586;2023-04-02T13:27:54;102793.50;;;16.94;55.28
71165;BME280;58859;55.132;-1.586;2023-04-02T13:30:23;102790.03;;;20.09;61.86
71165;BME280;58859;55.132;-1.586;2023-04-02T13:32:49;102786.88;;;19.46;52.12
71165;BME280;58859;55.132;-1.586;2023-04-02T13:35:15;102798.56;;;18.56;59.54
71165;BME280;58859;55.132;-1.586;2023-04-02T13:37:40;102797.97;;;17.98;56.26
71165;BME280;58859;55.132;-1.586;2023-04-02T13:40:06;102791.50;;;18.47;52.50
71165;BME280;58859;55.132;-1.586;2023-04-02T13:42:32;102790.72;;;17.53;57.55
71165;BME280;58859;55.132;-1.586;2023-04-02T13:44:57;102790.69;;;18.19;71.06
71165;BME280;58859;55.132;-1.586;2023-04-02T13:47:23;102776.88;;;18.79;64.78
71165;BME280;58859;55.132;-1.586;2023-04-02T13:49:48;102781.88;;;17.54;53.18
71165;BME280;58859;55.132;-1.586;2023-04-02T13:52:14;102786.50;;;16.45;59.38
71165;BME280;58859;55.132;-1.586;2023-04-02T13:54:50;102785.59;;;16.75;60.22
71165;BME280;58859;55.132;-1.586;2023-04-02T13:57:17;102788.53;;;16.82;59.91
71165;BME280;58859;55.132;-1.586;2023-04-02T13:59:42;102787.69;;;15.92;63.43
71165;BME280;58859;55.132;-1.586;2023-04-02T14:02:11;102783.59;;;16.48;60.33
71165;BME280;58859;55.132;-1.586;2023-04-02T14:04:40;102788.63;;;17.76;57.12
71165;BME280;58859;55.132;-1.586;2023-04-02T14:07:13;102784.25;;;16.31;61.27
71165;BME280;58859;55.132;-1.586;2023-04-02T14:09:48;102782.97;;;16.94;61.64
71165;BME280;58859;55.132;-1.586;2023-04-02T14:12:20;102794.91;;;18.29;73.13
71165;BME280;58859;55.132;-1.586;2023-04-02T14:23:08;102775.50;;;17.38;60.83
71165;BME280;58859;55.132;-1.586;2023-04-02T14:25:41;102780.41;;;15.75;65.61
71165;BME280;58859;55.132;-1.586;2023-04-02T14:28:22;102774.28;;;16.84;59.58
71165;BME280;58859;55.132;-1.586;2023-04-02T14:35:53;102771.09;;;16.81;72.28
71165;BME280;58859;55.132;-1.586;2023-04-02T14:41:26;102770.44;;;14.84;71.48
71165;BME280;58859;55.132;-1.586;2023-04-02T14:44:03;102764.75;;;14.79;73.70
71165;BME280;58859;55.132;-1.586;2023-04-02T14:46:35;102759.72;;;15.19;76.60
71165;BME280;58859;55.132;-1.586;2023-04-02T14:49:23;102759.53;;;15.73;74.04
71165;BME280;58859;55.132;-1.586;2023-04-02T14:57:19;102761.28;;;17.87;64.68
71165;BME280;58859;55.132;-1.586;2023-04-02T15:00:06;102757.09;;;15.81;67.89
71165;BME280;58859;55.132;-1.586;2023-04-02T15:07:56;102762.91;;;15.23;77.82
71165;BME280;58859;55.132;-1.586;2023-04-02T15:13:20;102767.50;;;17.10;76.76
71165;BME280;58859;55.132;-1.586;2023-04-02T15:15:53;102762.50;;;15.89;68.23
71165;BME280;58859;55.132;-1.586;2023-04-02T15:18:21;102768.91;;;15.66;76.52
71165;BME280;58859;55.132;-1.586;2023-04-02T15:21:03;102766.78;;;14.87;72.42
71165;BME280;58859;55.132;-1.586;2023-04-02T15:27:03;102783.03;;;14.48;82.08
71165;BME280;58859;55.132;-1.586;2023-04-02T15:29:27;102787.22;;;13.95;84.75
71165;BME280;58859;55.132;-1.586;2023-04-02T15:32:17;102764.31;;;15.06;78.71
71165;BME280;58859;55.132;-1.586;2023-04-02T15:42:24;102778.53;;;14.05;88.75
71165;BME280;58859;55.132;-1.586;2023-04-02T15:45:15;102782.59;;;13.41;89.64
71165;BME280;58859;55.132;-1.586;2023-04-02T15:47:56;102786.50;;;13.81;95.75
71165;BME280;58859;55.132;-1.586;2023-04-02T15:56:49;102800.50;;;13.80;92.38
71165;BME280;58859;55.132;-1.586;2023-04-02T16:02:01;102796.13;;;13.35;98.63
71165;BME280;58859;55.132;-1.586;2023-04-02T16:07:24;102798.13;;;13.32;97.10
71165;BME280;58859;55.132;-1.586;2023-04-02T16:10:08;102800.88;;;13.87;95.07
71165;BME280;58859;55.132;-1.586;2023-04-02T16:12:38;102808.28;;;12.76;100.00
71165;BME280;58859;55.132;-1.586;2023-04-02T16:15:26;102804.19;;;12.85;100.00
71165;BME280;58859;55.132;-1.586;2023-04-02T16:18:03;102799.47;;;12.53;100.00
71165;BME280;58859;55.132;-1.586;2023-04-02T16:20:35;102809.47;;;12.96;100.00
71165;BME280;58859;55.132;-1.586;2023-04-02T16:23:16;102803.06;;;12.76;100.00
71165;BME280;58859;55.132;-1.586;2023-04-02T16:33:58;102809.69;;;12.93;100.00
71165;BME280;58859;55.132;-1.586;2023-04-02T16:39:21;102816.41;;;12.48;100.00
71165;BME280;58859;55.132;-1.586;2023-04-02T17:01:44;102842.84;;;11.14;100.00
71165;BME280;58859;55.132;-1.586;2023-04-02T17:09:29;102838.66;;;12.16;100.00